Time;durP1;ratioP1;P1;durP2;ratioP2;P2;SDS_P1;SDS_P2;PMS_P1;PMS_P2;Temp;Humidity;BMP_temperature;BMP_pressure;BME280_temperature;BME280_humidity;BME280_pressure;Samples;Min_cycle;Max_cycle;Signal;HPM_P1;HPM_P2
2024/03/29 00:00:37;;;;;;;2.23;1.60;;;6.70;99.90;;;;;;4999361;28;20430;-68
2024/03/29 00:03:04;;;;;;;2.87;1.87;;;6.80;99.90;;;;;;5013833;28;20198;-68
2024/03/29 00:05:29;;;;;;;1.90;1.80;;;6.80;99.90;;;;;;5013862;28;20772;-68
2024/03/29 00:07:55;;;;;;;2.10;1.90;;;6.90;99.90;;;;;;5019313;23;20597;-68
2024/03/29 00:10:20;;;;;;;3.80;1.70;;;6.90;99.90;;;;;;4993969;28;20182;-66
2024/03/29 00:12:46;;;;;;;4.93;1.40;;;6.90;99.90;;;;;;4993971;28;20191;-66
2024/03/29 00:15:11;;;;;;;1.80;1.70;;;6.90;99.90;;;;;;4994058;28;20255;-66
2024/03/29 00:17:36;;;;;;;2.30;1.90;;;6.90;99.90;;;;;;4992802;28;20786;-66
2024/03/29 00:20:03;;;;;;;1.83;1.73;;;6.80;99.90;;;;;;4993655;28;20641;-67
2024/03/29 00:22:29;;;;;;;2.40;1.73;;;6.80;99.90;;;;;;4993324;28;20222;-67
2024/03/29 00:24:55;;;;;;;4.77;1.57;;;6.80;99.90;;;;;;4993607;28;20423;-66
2024/03/29 00:27:22;;;;;;;1.93;1.47;;;6.80;99.90;;;;;;4992715;28;20246;-66
2024/03/29 00:29:48;;;;;;;3.07;1.90;;;6.80;99.90;;;;;;4992979;28;20415;-66
2024/03/29 00:32:14;;;;;;;2.60;2.17;;;6.70;99.90;;;;;;4992291;28;20423;-66
2024/03/29 00:34:39;;;;;;;2.47;2.27;;;6.70;99.90;;;;;;4993736;28;20923;-66
2024/03/29 00:37:05;;;;;;;1.80;1.50;;;6.70;99.90;;;;;;4992890;28;20250;-67
2024/03/29 00:39:30;;;;;;;2.10;1.90;;;6.80;99.90;;;;;;4993687;28;20172;-66
2024/03/29 00:41:56;;;;;;;2.80;2.13;;;6.80;99.90;;;;;;4992139;28;20667;-66
2024/03/29 00:44:21;;;;;;;1.77;1.67;;;6.80;99.90;;;;;;4993522;28;20195;-66
2024/03/29 00:46:47;;;;;;;3.10;1.60;;;6.90;99.90;;;;;;4992495;28;20179;-66
2024/03/29 00:49:13;;;;;;;1.97;1.83;;;6.90;99.90;;;;;;4993441;28;20540;-66
2024/03/29 00:51:39;;;;;;;2.07;1.90;;;6.90;99.90;;;;;;4993385;28;20176;-66
2024/03/29 00:54:05;;;;;;;2.70;1.47;;;6.90;99.90;;;;;;4993013;28;20175;-66
2024/03/29 00:56:30;;;;;;;2.17;1.40;;;7.00;99.90;;;;;;4992430;28;20434;-66
2024/03/29 00:58:56;;;;;;;2.30;2.10;;;7.00;99.90;;;;;;4993239;28;20195;-66
2024/03/29 01:01:21;;;;;;;1.60;1.50;;;7.10;99.90;;;;;;4993047;28;20186;-66
2024/03/29 01:03:47;;;;;;;2.00;1.90;;;7.10;99.90;;;;;;4993139;28;20213;-66
2024/03/29 01:06:13;;;;;;;6.53;2.17;;;7.10;99.90;;;;;;4993084;28;20176;-66
2024/03/29 01:08:38;;;;;;;1.80;1.60;;;7.00;99.90;;;;;;4992450;28;20265;-66
2024/03/29 01:11:04;;;;;;;3.00;2.17;;;7.00;99.90;;;;;;4992870;28;20170;-66
2024/03/29 01:13:30;;;;;;;1.70;1.60;;;7.00;99.90;;;;;;4993069;28;20179;-66
2024/03/29 01:15:55;;;;;;;2.30;1.70;;;7.10;99.90;;;;;;4993177;28;20180;-66
2024/03/29 01:18:21;;;;;;;2.00;1.40;;;7.10;99.90;;;;;;4992537;28;20442;-67
2024/03/29 01:20:46;;;;;;;2.70;1.57;;;7.20;99.90;;;;;;4993211;28;20823;-66
2024/03/29 01:23:12;;;;;;;1.80;1.67;;;7.20;99.90;;;;;;4992675;28;21513;-66
2024/03/29 01:25:37;;;;;;;2.80;1.53;;;7.20;99.90;;;;;;4992909;28;20164;-66
2024/03/29 01:28:04;;;;;;;2.13;1.70;;;7.20;99.90;;;;;;4992112;28;20192;-66
2024/03/29 01:30:30;;;;;;;2.10;1.50;;;7.20;99.90;;;;;;4992888;28;20661;-66
2024/03/29 01:32:55;;;;;;;1.90;1.70;;;7.20;99.90;;;;;;4992554;28;20433;-66
2024/03/29 01:35:21;;;;;;;3.47;2.00;;;7.20;99.90;;;;;;4992781;28;20199;-66
2024/03/29 01:37:46;;;;;;;2.40;1.77;;;7.10;99.90;;;;;;4991965;28;20274;-66
2024/03/29 01:40:12;;;;;;;1.80;1.70;;;7.10;99.90;;;;;;4992482;28;20607;-66
2024/03/29 01:42:37;;;;;;;1.30;1.20;;;7.10;99.90;;;;;;4992385;28;20227;-67
2024/03/29 01:45:03;;;;;;;1.67;1.57;;;7.10;99.90;;;;;;4992674;28;20167;-67
2024/03/29 01:47:29;;;;;;;3.63;1.80;;;7.10;99.90;;;;;;4991903;28;20195;-67
2024/03/29 01:49:54;;;;;;;1.60;1.20;;;7.10;99.90;;;;;;4992838;28;20974;-67
2024/03/29 01:52:20;;;;;;;1.40;1.30;;;7.10;99.90;;;;;;4992728;28;20175;-67
2024/03/29 01:54:48;;;;;;;3.13;1.53;;;7.10;99.90;;;;;;4992301;28;20183;-67
2024/03/29 01:57:13;;;;;;;1.73;1.53;;;7.10;99.90;;;;;;4991837;28;20446;-67
2024/03/29 01:59:42;;;;;;;1.97;1.43;;;7.10;99.90;;;;;;4992486;28;20415;-67
2024/03/29 02:02:08;;;;;;;4.03;1.70;;;7.10;99.90;;;;;;4992255;28;20207;-67
2024/03/29 02:04:35;;;;;;;1.77;1.60;;;7.10;99.90;;;;;;4992308;28;20868;-67
2024/03/29 02:07:01;;;;;;;2.57;1.57;;;7.10;99.90;;;;;;4991594;28;20165;-67
2024/03/29 02:09:27;;;;;;;2.80;1.77;;;7.10;99.90;;;;;;4992466;28;21112;-67
2024/03/29 02:11:52;;;;;;;2.50;1.60;;;7.20;99.90;;;;;;4992557;28;20176;-67
2024/03/29 02:14:18;;;;;;;1.43;1.33;;;7.20;99.90;;;;;;4992117;28;20176;-67
2024/03/29 02:16:43;;;;;;;1.90;1.47;;;7.30;99.90;;;;;;4990273;28;20174;-67
2024/03/29 02:19:09;;;;;;;1.20;1.10;;;7.40;99.90;;;;;;4992220;28;20199;-67
2024/03/29 02:21:40;;;;;;;2.60;1.37;;;7.50;99.90;;;;;;4992368;28;20591;-67
2024/03/29 02:24:09;;;;;;;2.63;1.47;;;7.50;99.90;;;;;;4992233;28;20203;-67
2024/03/29 02:26:36;;;;;;;2.90;1.50;;;7.60;99.90;;;;;;4991352;28;20510;-67
2024/03/29 02:29:02;;;;;;;2.70;1.40;;;7.60;99.90;;;;;;4991913;28;20486;-67
2024/03/29 02:31:29;;;;;;;2.10;1.50;;;7.60;99.90;;;;;;4992310;28;20415;-67
2024/03/29 02:33:54;;;;;;;3.00;1.00;;;7.60;99.90;;;;;;4992045;28;20492;-67
2024/03/29 02:36:20;;;;;;;1.70;1.20;;;7.60;99.90;;;;;;4991770;28;20430;-67
2024/03/29 02:38:45;;;;;;;1.70;1.40;;;7.60;99.90;;;;;;4991644;28;20614;-67
2024/03/29 02:41:11;;;;;;;2.00;1.53;;;7.60;99.90;;;;;;4992226;28;20176;-67
2024/03/29 02:43:36;;;;;;;1.33;1.10;;;7.60;99.90;;;;;;4992130;28;20199;-67
2024/03/29 02:46:02;;;;;;;1.60;1.50;;;7.60;99.90;;;;;;4992012;28;20700;-67
2024/03/29 02:48:27;;;;;;;1.30;1.20;;;7.60;99.90;;;;;;4991140;28;20699;-67
2024/03/29 02:50:53;;;;;;;1.37;1.27;;;7.60;99.90;;;;;;4992317;28;20178;-67
2024/03/29 02:53:18;;;;;;;2.30;1.40;;;7.50;99.90;;;;;;4993934;28;20211;-67
2024/03/29 02:55:44;;;;;;;1.73;1.50;;;7.50;99.90;;;;;;4995634;28;20580;-67
2024/03/29 02:58:09;;;;;;;2.20;1.43;;;7.50;99.90;;;;;;4994591;28;20235;-67
2024/03/29 03:00:35;;;;;;;2.37;1.50;;;7.60;99.90;;;;;;4995513;28;20266;-67
2024/03/29 03:03:00;;;;;;;1.80;1.37;;;7.60;99.90;;;;;;4995191;28;20203;-67
2024/03/29 03:05:26;;;;;;;1.60;1.50;;;7.60;99.90;;;;;;4994049;28;20551;-67
2024/03/29 03:13:19;;;;;;;1.47;1.33;;;7.50;99.90;;;;;;4995622;28;20429;-67
2024/03/29 03:15:44;;;;;;;1.30;1.10;;;7.50;99.90;;;;;;4995261;28;20431;-67
2024/03/29 03:18:10;;;;;;;1.17;1.07;;;7.50;99.90;;;;;;4994180;28;20199;-67
2024/03/29 03:20:37;;;;;;;1.53;1.43;;;7.50;99.90;;;;;;4995195;28;20605;-67
2024/03/29 03:23:03;;;;;;;1.50;1.40;;;7.50;99.90;;;;;;4994901;28;20203;-67
2024/03/29 03:25:29;;;;;;;1.37;1.20;;;7.50;99.90;;;;;;4995293;28;20437;-67
2024/03/29 03:27:55;;;;;;;0.90;0.90;;;7.50;99.90;;;;;;4994050;28;20439;-67
2024/03/29 03:30:21;;;;;;;2.70;1.23;;;7.50;99.90;;;;;;4995035;28;20606;-67
2024/03/29 03:32:46;;;;;;;1.50;1.40;;;7.50;99.90;;;;;;4994812;28;20629;-67
2024/03/29 03:35:12;;;;;;;1.87;1.37;;;7.50;99.90;;;;;;4994935;28;20184;-67
2024/03/29 03:37:37;;;;;;;1.77;1.10;;;7.60;99.90;;;;;;4993944;28;20203;-67
2024/03/29 03:40:04;;;;;;;1.63;1.17;;;7.70;99.90;;;;;;4994860;28;20179;-67
2024/03/29 03:42:30;;;;;;;1.60;1.50;;;7.70;99.90;;;;;;4994685;28;20263;-67
2024/03/29 03:44:56;;;;;;;2.73;1.13;;;7.70;99.90;;;;;;4994741;28;20421;-67
2024/03/29 03:47:21;;;;;;;1.43;1.13;;;7.70;99.90;;;;;;4993832;28;20877;-67
2024/03/29 03:49:47;;;;;;;1.93;0.97;;;7.60;99.90;;;;;;4994684;28;20172;-67
2024/03/29 03:52:12;;;;;;;0.70;0.70;;;7.70;99.90;;;;;;4994652;28;20164;-67
2024/03/29 03:54:38;;;;;;;1.37;1.20;;;7.80;99.90;;;;;;4996131;28;20188;-67
2024/03/29 03:57:04;;;;;;;1.17;0.90;;;7.90;99.90;;;;;;4995766;28;20176;-66
2024/03/29 03:59:30;;;;;;;0.87;0.87;;;8.00;99.90;;;;;;4993649;28;20171;-67
2024/03/29 04:01:56;;;;;;;0.73;0.70;;;8.00;99.90;;;;;;4994479;28;20434;-67
2024/03/29 04:04:22;;;;;;;1.10;0.90;;;8.20;99.90;;;;;;4995362;28;20315;-67
2024/03/29 04:06:47;;;;;;;0.93;0.70;;;8.20;99.90;;;;;;4995132;28;20513;-67
2024/03/29 04:09:16;;;;;;;0.83;0.83;;;8.30;99.90;;;;;;4996016;28;20250;-67
2024/03/29 04:11:42;;;;;;;1.63;0.77;;;8.30;99.90;;;;;;4996444;28;20764;-67
2024/03/29 04:14:08;;;;;;;2.60;1.33;;;8.30;99.90;;;;;;4995558;28;20581;-67
2024/03/29 04:16:34;;;;;;;1.67;0.90;;;8.30;99.90;;;;;;4994882;28;20956;-67
2024/03/29 04:18:59;;;;;;;2.23;1.47;;;8.40;99.90;;;;;;4996531;28;20227;-67
2024/03/29 04:21:25;;;;;;;1.03;0.93;;;8.30;99.90;;;;;;4997904;28;20241;-67
2024/03/29 04:23:50;;;;;;;1.53;1.07;;;8.30;99.90;;;;;;4995244;28;20207;-67
2024/03/29 04:26:16;;;;;;;1.27;1.00;;;8.30;99.90;;;;;;4993898;28;20175;-67
2024/03/29 04:28:41;;;;;;;0.70;0.70;;;8.30;99.90;;;;;;4993402;28;20542;-67
2024/03/29 04:31:07;;;;;;;1.17;0.90;;;8.30;99.90;;;;;;4993901;28;20191;-67
2024/03/29 04:33:32;;;;;;;2.00;0.93;;;8.40;99.90;;;;;;4993763;28;20600;-67
2024/03/29 04:36:03;;;;;;;2.40;1.07;;;8.50;99.90;;;;;;4994154;28;20194;-67
2024/03/29 04:38:30;;;;;;;1.87;1.13;;;8.50;99.90;;;;;;4992968;28;20188;-67
2024/03/29 04:40:57;;;;;;;0.90;0.90;;;8.60;99.90;;;;;;4993428;28;21001;-67
2024/03/29 04:43:24;;;;;;;1.20;0.90;;;8.60;99.90;;;;;;4992868;28;20450;-67
2024/03/29 04:45:50;;;;;;;2.70;1.20;;;8.40;99.90;;;;;;4993237;28;20999;-67
2024/03/29 04:48:15;;;;;;;1.80;1.07;;;8.40;99.90;;;;;;4992125;28;20663;-67
2024/03/29 04:50:41;;;;;;;2.87;1.90;;;8.50;99.90;;;;;;4993404;28;20176;-67
2024/03/29 04:53:09;;;;;;;1.90;1.07;;;8.50;99.90;;;;;;4993407;28;20175;-67
2024/03/29 04:55:35;;;;;;;0.93;0.93;;;8.50;99.90;;;;;;4993173;28;20191;-67
2024/03/29 04:58:01;;;;;;;1.87;0.97;;;8.50;99.90;;;;;;4992636;28;20577;-67
2024/03/29 05:00:27;;;;;;;1.07;1.07;;;8.50;99.90;;;;;;4992013;28;20513;-67
2024/03/29 05:02:52;;;;;;;0.83;0.83;;;8.40;99.90;;;;;;4993039;28;20203;-67
2024/03/29 05:05:18;;;;;;;0.97;0.83;;;8.40;99.90;;;;;;4992965;28;20830;-67
2024/03/29 05:07:44;;;;;;;3.30;1.00;;;8.40;99.90;;;;;;4992224;28;20721;-67
2024/03/29 05:10:10;;;;;;;1.27;0.90;;;8.40;99.90;;;;;;4993127;28;20509;-67
2024/03/29 05:12:36;;;;;;;1.57;0.77;;;8.40;99.90;;;;;;4993116;28;20186;-67
2024/03/29 05:15:02;;;;;;;1.57;1.20;;;8.40;99.90;;;;;;4991190;28;20582;-67
2024/03/29 05:17:27;;;;;;;4.13;1.50;;;8.40;99.90;;;;;;4992133;28;20438;-67
2024/03/29 05:19:53;;;;;;;1.63;1.10;;;8.50;99.90;;;;;;4992893;28;20649;-67
2024/03/29 05:22:19;;;;;;;1.33;1.20;;;8.50;99.90;;;;;;4993199;28;20645;-67
2024/03/29 05:24:44;;;;;;;0.80;0.80;;;8.50;99.90;;;;;;4992913;28;20480;-67
2024/03/29 05:27:12;;;;;;;1.10;0.90;;;8.50;99.90;;;;;;4991955;28;20195;-67
2024/03/29 05:29:37;;;;;;;1.10;1.00;;;8.50;99.90;;;;;;4992851;28;20218;-67
2024/03/29 05:32:04;;;;;;;0.73;0.73;;;8.50;99.90;;;;;;4992865;28;20797;-67
2024/03/29 05:34:29;;;;;;;2.20;0.73;;;8.60;99.90;;;;;;4992566;28;20187;-67
2024/03/29 05:36:55;;;;;;;1.20;0.80;;;8.60;99.90;;;;;;4992238;28;20560;-67
2024/03/29 05:39:20;;;;;;;2.10;0.90;;;8.60;99.90;;;;;;4992769;28;20895;-67
2024/03/29 05:41:46;;;;;;;1.37;1.27;;;8.60;99.90;;;;;;4992790;28;20266;-67
2024/03/29 05:44:12;;;;;;;1.10;1.00;;;8.60;99.90;;;;;;4992528;28;20209;-67
2024/03/29 05:46:39;;;;;;;1.13;0.80;;;8.70;99.90;;;;;;4992056;28;20220;-67
2024/03/29 05:49:04;;;;;;;1.13;0.90;;;8.70;99.90;;;;;;4992399;28;21042;-67
2024/03/29 05:51:30;;;;;;;1.00;1.00;;;8.80;99.90;;;;;;4992708;28;20501;-67
2024/03/29 05:53:56;;;;;;;0.90;0.90;;;8.90;99.90;;;;;;4992751;28;20180;-67
2024/03/29 05:56:22;;;;;;;0.90;0.60;;;8.90;99.90;;;;;;4992246;28;20563;-67
2024/03/29 05:58:47;;;;;;;0.80;0.80;;;9.00;99.90;;;;;;4990975;28;20450;-67
2024/03/29 06:01:13;;;;;;;0.90;0.90;;;9.00;99.90;;;;;;4992546;28;20458;-67
2024/03/29 06:03:38;;;;;;;1.10;0.73;;;9.00;99.90;;;;;;4992416;28;20680;-67
2024/03/29 06:06:04;;;;;;;1.00;0.90;;;9.00;99.90;;;;;;4992304;28;20179;-67
2024/03/29 06:08:30;;;;;;;1.70;1.60;;;9.00;99.90;;;;;;4989621;23;20220;-66
2024/03/29 06:10:56;;;;;;;1.10;1.00;;;9.10;99.90;;;;;;4953683;28;20177;-67
2024/03/29 06:18:50;;;;;;;1.20;1.10;;;9.30;99.90;;;;;;4953635;29;20468;-67
2024/03/29 06:21:16;;;;;;;1.00;0.90;;;9.40;99.90;;;;;;4971007;28;20423;-67
2024/03/29 06:23:41;;;;;;;0.73;0.70;;;9.40;99.90;;;;;;4972922;28;20197;-67
2024/03/29 06:26:07;;;;;;;1.07;1.00;;;9.40;99.90;;;;;;4972204;28;20552;-66
2024/03/29 06:28:32;;;;;;;0.80;0.80;;;9.40;99.90;;;;;;4974560;28;20219;-67
2024/03/29 06:31:00;;;;;;;0.80;0.70;;;9.50;99.90;;;;;;4976638;28;20165;-67
2024/03/29 06:33:25;;;;;;;0.90;0.90;;;9.50;99.90;;;;;;4976573;28;20179;-67
2024/03/29 06:35:54;;;;;;;1.43;1.03;;;9.50;99.90;;;;;;4976275;28;20515;-67
2024/03/29 06:38:20;;;;;;;1.80;1.10;;;9.50;99.90;;;;;;4975801;28;20200;-67
2024/03/29 06:40:46;;;;;;;9.30;1.30;;;9.50;99.90;;;;;;4976419;28;20764;-66
2024/03/29 06:43:12;;;;;;;1.27;1.07;;;9.50;99.90;;;;;;4976341;28;20643;-66
2024/03/29 06:45:40;;;;;;;0.90;0.90;;;9.50;99.90;;;;;;4965876;28;20177;-67
2024/03/29 06:48:06;;;;;;;1.03;1.03;;;9.60;99.90;;;;;;4956166;29;20980;-66
2024/03/29 06:50:31;;;;;;;1.37;0.90;;;9.70;99.90;;;;;;4957230;28;20455;-67
2024/03/29 06:52:57;;;;;;;1.13;0.93;;;9.80;99.90;;;;;;4956814;29;20296;-67
2024/03/29 06:55:22;;;;;;;1.53;0.93;;;9.80;99.90;;;;;;4956912;29;20181;-67
2024/03/29 06:57:48;;;;;;;0.83;0.83;;;9.90;99.90;;;;;;4956490;28;20204;-67
2024/03/29 07:00:13;;;;;;;1.30;1.20;;;10.10;99.90;;;;;;4957023;28;20173;-67
2024/03/29 07:02:39;;;;;;;2.30;2.10;;;10.30;99.90;;;;;;4975103;28;20291;-67
2024/03/29 07:05:07;;;;;;;2.00;1.40;;;10.40;99.90;;;;;;4973563;28;20176;-67
2024/03/29 07:07:33;;;;;;;1.30;1.00;;;10.50;99.90;;;;;;4955811;28;20196;-67
2024/03/29 07:09:58;;;;;;;2.30;1.63;;;10.60;99.90;;;;;;4956663;28;20456;-67
2024/03/29 07:12:24;;;;;;;7.50;1.53;;;10.70;99.90;;;;;;4956730;28;20188;-67
2024/03/29 07:14:49;;;;;;;1.20;1.10;;;10.70;99.90;;;;;;4956748;29;20177;-67
2024/03/29 07:17:15;;;;;;;1.63;1.53;;;10.70;99.90;;;;;;4955712;29;20179;-67
2024/03/29 07:19:40;;;;;;;1.87;1.50;;;10.70;99.90;;;;;;4956605;29;20208;-67
2024/03/29 07:22:06;;;;;;;1.00;1.00;;;10.60;99.90;;;;;;4972892;28;20180;-67
2024/03/29 07:24:31;;;;;;;1.83;1.27;;;10.50;99.90;;;;;;4975585;28;20258;-66
2024/03/29 07:26:57;;;;;;;4.53;2.80;;;10.30;99.90;;;;;;4974931;28;20255;-67
2024/03/29 07:29:22;;;;;;;5.73;2.67;;;10.10;99.90;;;;;;4975487;28;20188;-67
2024/03/29 07:31:48;;;;;;;3.00;1.97;;;10.00;99.90;;;;;;4974927;28;20184;-66
2024/03/29 07:34:13;;;;;;;3.10;2.00;;;9.90;99.90;;;;;;4975493;28;20184;-66
2024/03/29 07:36:40;;;;;;;1.53;1.43;;;9.90;99.90;;;;;;4973188;28;20762;-67
2024/03/29 07:39:06;;;;;;;1.97;1.77;;;9.80;99.90;;;;;;4974651;28;20201;-66
2024/03/29 07:41:32;;;;;;;1.30;1.20;;;9.60;99.90;;;;;;4975396;28;20427;-66
2024/03/29 07:44:03;;;;;;;2.03;1.40;;;9.40;99.90;;;;;;4961187;28;20464;-66
2024/03/29 07:46:31;;;;;;;2.80;2.23;;;9.20;99.90;;;;;;4955246;28;20169;-66
2024/03/29 07:48:57;;;;;;;2.20;2.00;;;9.00;99.90;;;;;;4955831;29;20436;-66
2024/03/29 07:51:23;;;;;;;4.90;4.17;;;8.80;99.90;;;;;;4962874;28;20439;-66
2024/03/29 07:53:48;;;;;;;2.37;1.40;;;8.60;99.90;;;;;;4975111;28;20176;-66
2024/03/29 07:56:14;;;;;;;2.67;1.37;;;8.30;99.90;;;;;;4974836;28;20187;-66
2024/03/29 07:58:39;;;;;;;2.00;1.70;;;8.10;99.90;;;;;;4974583;28;20211;-66
2024/03/29 08:01:05;;;;;;;2.47;1.93;;;8.00;99.90;;;;;;4974300;28;20180;-66
2024/03/29 08:03:34;;;;;;;2.20;1.60;;;7.90;99.90;;;;;;4974727;28;20264;-66
2024/03/29 08:06:01;;;;;;;3.10;2.13;;;7.90;99.90;;;;;;4971301;28;20470;-66
2024/03/29 08:08:27;;;;;;;1.23;1.13;;;7.90;99.90;;;;;;4954583;28;20969;-66
2024/03/29 08:10:53;;;;;;;1.87;1.40;;;7.90;99.90;;;;;;4955488;29;20487;-66
2024/03/29 08:13:21;;;;;;;1.80;1.53;;;7.80;99.90;;;;;;4959630;28;20185;-66
2024/03/29 08:15:47;;;;;;;1.97;1.40;;;7.90;99.90;;;;;;4974770;28;20427;-66
2024/03/29 08:18:13;;;;;;;2.33;1.60;;;7.90;99.90;;;;;;4959889;28;20456;-66
2024/03/29 08:20:38;;;;;;;2.83;2.00;;;7.90;99.90;;;;;;4955334;29;20511;-66
2024/03/29 08:23:04;;;;;;;1.33;1.23;;;8.00;99.90;;;;;;4971995;28;20204;-66
2024/03/29 08:25:30;;;;;;;2.97;1.40;;;8.00;99.90;;;;;;4974850;28;20195;-66
2024/03/29 08:27:58;;;;;;;3.90;1.53;;;8.00;99.90;;;;;;4963185;28;20192;-66
2024/03/29 08:30:34;;;;;;;1.23;1.13;;;8.00;99.90;;;;;;4955146;28;20184;-67
2024/03/29 08:33:02;;;;;;;2.40;2.13;;;8.10;99.90;;;;;;4955113;28;20420;-67
2024/03/29 08:35:28;;;;;;;1.63;1.53;;;8.10;99.90;;;;;;4955104;28;20455;-66
2024/03/29 08:37:54;;;;;;;1.57;1.47;;;8.10;99.90;;;;;;4967434;28;20447;-66
2024/03/29 08:40:19;;;;;;;2.13;1.20;;;8.10;99.90;;;;;;4974312;28;20502;-67
2024/03/29 08:42:45;;;;;;;1.73;1.63;;;8.20;99.90;;;;;;4974166;28;20196;-67
2024/03/29 08:45:11;;;;;;;3.13;1.63;;;8.30;99.90;;;;;;4974306;28;20180;-66
2024/03/29 08:47:37;;;;;;;2.43;1.30;;;8.50;99.90;;;;;;4972606;28;20188;-66
2024/03/29 08:50:04;;;;;;;2.40;2.10;;;8.70;99.90;;;;;;4973307;28;20420;-66
2024/03/29 08:52:30;;;;;;;2.10;1.90;;;8.90;99.90;;;;;;4965768;28;20228;-66
2024/03/29 08:54:56;;;;;;;3.90;3.60;;;8.90;99.90;;;;;;4954777;29;20914;-66
2024/03/29 08:57:21;;;;;;;3.97;2.20;;;9.00;99.90;;;;;;4953931;28;20428;-66
2024/03/29 08:59:47;;;;;;;2.43;2.23;;;9.00;99.90;;;;;;4966887;28;20232;-66
2024/03/29 09:02:12;;;;;;;1.80;1.53;;;9.10;99.90;;;;;;4973912;28;20223;-66
2024/03/29 09:04:38;;;;;;;3.43;1.80;;;9.20;99.90;;;;;;4970947;28;20557;-66
2024/03/29 09:07:03;;;;;;;3.40;2.00;;;9.30;99.90;;;;;;4953966;28;20654;-66
2024/03/29 09:09:29;;;;;;;2.33;2.13;;;9.40;99.90;;;;;;4954272;29;20257;-66
2024/03/29 09:11:55;;;;;;;2.20;1.80;;;9.50;99.90;;;;;;4954461;28;20177;-68
2024/03/29 09:14:21;;;;;;;2.87;2.70;;;9.60;99.90;;;;;;4954411;29;20945;-68
2024/03/29 09:16:47;;;;;;;3.67;3.20;;;9.80;99.90;;;;;;4972286;28;20184;-68
2024/03/29 09:19:13;;;;;;;3.57;3.20;;;9.90;99.90;;;;;;4973446;28;20193;-68
2024/03/29 09:21:39;;;;;;;3.13;2.60;;;10.00;99.90;;;;;;4973646;28;20788;-68
2024/03/29 09:24:05;;;;;;;5.20;2.93;;;10.00;99.90;;;;;;4968784;28;20459;-68
2024/03/29 09:26:31;;;;;;;4.20;3.80;;;10.00;99.90;;;;;;4972960;28;20872;-68
2024/03/29 09:28:57;;;;;;;3.67;3.37;;;10.00;99.90;;;;;;4972684;28;20443;-68
2024/03/29 09:31:23;;;;;;;3.00;2.80;;;10.10;99.90;;;;;;4973595;28;20236;-68
2024/03/29 09:33:52;;;;;;;3.03;2.73;;;10.10;99.90;;;;;;4973415;28;20187;-68
2024/03/29 09:36:21;;;;;;;3.37;3.03;;;10.10;99.90;;;;;;4973297;28;20182;-68
2024/03/29 09:38:46;;;;;;;7.33;2.83;;;10.10;99.90;;;;;;4960111;28;20464;-68
2024/03/29 09:41:16;;;;;;;3.73;3.43;;;10.10;99.90;;;;;;4954177;29;20965;-66
2024/03/29 09:43:46;;;;;;;2.20;2.00;;;10.20;99.90;;;;;;4954097;29;20197;-68
2024/03/29 09:46:13;;;;;;;5.57;2.40;;;10.50;99.90;;;;;;4954061;29;20424;-68
2024/03/29 09:48:40;;;;;;;2.50;2.30;;;10.60;99.90;;;;;;4964723;28;20451;-68
2024/03/29 09:51:07;;;;;;;4.77;1.57;;;10.90;99.90;;;;;;4973003;28;20490;-68
2024/03/29 09:53:35;;;;;;;2.40;2.10;;;11.10;99.90;;;;;;4963943;28;20432;-68
2024/03/29 09:56:06;;;;;;;2.40;1.83;;;11.20;99.90;;;;;;4953963;28;20432;-68
2024/03/29 09:58:36;;;;;;;3.30;1.80;;;11.30;99.90;;;;;;4953153;29;20440;-68
2024/03/29 10:01:06;;;;;;;2.57;1.70;;;11.40;99.90;;;;;;4965551;28;20435;-68
2024/03/29 10:03:38;;;;;;;1.63;1.53;;;11.50;99.90;;;;;;4975729;28;20458;-68
2024/03/29 10:06:04;;;;;;;2.23;1.10;;;11.30;99.90;;;;;;4977139;28;20426;-68
2024/03/29 10:08:31;;;;;;;2.70;2.50;;;11.20;99.90;;;;;;4975420;28;20460;-68
2024/03/29 10:10:56;;;;;;;4.00;3.27;;;11.10;99.90;;;;;;4976274;28;20455;-68
2024/03/29 10:13:23;;;;;;;2.60;1.70;;;11.10;99.90;;;;;;4957611;28;21040;-68
2024/03/29 10:15:55;;;;;;;1.47;1.37;;;11.30;99.90;;;;;;4957803;28;20926;-68
2024/03/29 10:18:25;;;;;;;3.10;1.70;;;11.50;99.90;;;;;;4956818;28;20448;-68
2024/03/29 10:21:03;;;;;;;2.77;1.70;;;12.30;99.90;;;;;;4957547;28;20483;-68
2024/03/29 10:23:30;;;;;;;2.43;1.40;;;13.80;99.90;;;;;;4948205;28;20817;-68
2024/03/29 10:25:56;;;;;;;2.60;1.80;;;15.20;99.90;;;;;;4976650;28;20427;-68
2024/03/29 10:28:22;;;;;;;2.10;1.90;;;15.50;99.90;;;;;;4975875;28;20502;-68
2024/03/29 10:30:49;;;;;;;2.40;1.80;;;15.60;99.90;;;;;;4976655;28;20793;-68
2024/03/29 10:33:15;;;;;;;2.40;1.90;;;15.20;99.90;;;;;;4975760;28;20438;-68
2024/03/29 10:35:45;;;;;;;7.50;2.30;;;14.90;99.90;;;;;;4976642;28;20478;-68
2024/03/29 10:38:11;;;;;;;3.87;2.00;;;15.00;99.90;;;;;;4975095;28;20481;-68
2024/03/29 10:40:40;;;;;;;4.97;2.20;;;15.30;99.90;;;;;;4957125;29;20479;-68
2024/03/29 10:43:13;;;;;;;2.57;2.03;;;15.60;99.90;;;;;;4957007;28;20543;-68
2024/03/29 10:45:39;;;;;;;2.67;2.10;;;15.50;99.90;;;;;;4964212;28;20446;-67
2024/03/29 10:48:08;;;;;;;3.03;2.13;;;15.40;99.90;;;;;;4975579;28;20432;-67
2024/03/29 10:50:39;;;;;;;3.13;2.07;;;15.60;99.90;;;;;;4976355;28;20450;-69
2024/03/29 10:53:05;;;;;;;4.33;2.40;;;15.20;99.90;;;;;;4976216;28;20481;-68
2024/03/29 10:55:33;;;;;;;2.70;2.30;;;15.00;99.90;;;;;;4970011;28;20431;-67
2024/03/29 10:58:01;;;;;;;2.53;2.33;;;15.00;99.90;;;;;;4965274;28;20456;-67
2024/03/29 11:00:29;;;;;;;2.63;1.97;;;15.50;99.90;;;;;;4956913;28;20960;-68
2024/03/29 11:03:13;;;;;;;2.47;2.10;;;15.10;99.90;;;;;;4956643;28;20491;-68
2024/03/29 11:05:44;;;;;;;1.90;1.80;;;15.20;99.90;;;;;;4956647;29;20421;-67
2024/03/29 11:08:10;;;;;;;3.63;2.00;;;15.10;99.90;;;;;;4966142;28;20821;-67
2024/03/29 11:10:47;;;;;;;2.20;2.00;;;14.60;99.90;;;;;;4959863;28;21008;-67
2024/03/29 11:13:35;;;;;;;1.80;1.70;;;14.40;99.90;;;;;;4955891;28;20420;-68
2024/03/29 11:16:00;;;;;;;2.03;1.93;;;14.50;99.90;;;;;;4956513;29;20432;-67
2024/03/29 11:18:28;;;;;;;2.50;2.10;;;15.10;99.90;;;;;;4955742;28;20440;-68
2024/03/29 11:20:55;;;;;;;2.10;1.90;;;15.50;99.90;;;;;;4956601;28;20609;-67
2024/03/29 11:23:22;;;;;;;2.80;2.60;;;15.60;99.90;;;;;;4956379;28;20515;-68
2024/03/29 11:25:55;;;;;;;3.87;2.97;;;15.50;99.90;;;;;;4957501;28;20425;-68
2024/03/29 11:28:26;;;;;;;2.60;1.97;;;16.00;99.90;;;;;;4955492;28;20471;-68
2024/03/29 11:30:53;;;;;;;4.50;2.03;;;16.30;99.90;;;;;;4955067;28;20793;-67
2024/03/29 11:33:46;;;;;;;1.80;1.70;;;16.70;99.90;;;;;;4956282;28;20547;-68
2024/03/29 11:36:13;;;;;;;2.37;2.17;;;16.80;99.90;;;;;;4972422;28;20442;-68
2024/03/29 11:38:39;;;;;;;2.23;2.13;;;16.80;99.90;;;;;;4974854;28;20882;-68
2024/03/29 11:41:16;;;;;;;3.57;3.03;;;16.50;99.90;;;;;;4974588;28;20518;-68
2024/03/29 11:43:43;;;;;;;2.20;2.07;;;16.00;99.90;;;;;;4967240;28;20456;-68
2024/03/29 11:46:13;;;;;;;3.00;2.80;;;15.60;99.90;;;;;;4963381;28;20925;-68
2024/03/29 11:48:40;;;;;;;2.30;2.10;;;15.80;99.90;;;;;;4974817;28;20435;-67
2024/03/29 11:51:08;;;;;;;2.40;2.30;;;15.80;99.90;;;;;;4975202;28;20789;-68
2024/03/29 11:53:34;;;;;;;2.57;2.10;;;15.70;99.90;;;;;;4975070;28;20434;-67
2024/03/29 11:56:01;;;;;;;2.70;2.30;;;15.50;99.90;;;;;;4961946;28;20428;-67
2024/03/29 11:58:28;;;;;;;3.20;2.60;;;15.40;99.90;;;;;;4955069;29;20203;-67
2024/03/29 12:00:55;;;;;;;2.50;2.33;;;15.40;99.90;;;;;;4955755;29;20505;-68
2024/03/29 12:03:21;;;;;;;2.00;1.90;;;15.00;99.90;;;;;;4955700;28;20460;-67
2024/03/29 12:05:49;;;;;;;1.87;1.63;;;15.00;99.90;;;;;;4955793;28;20437;-67
2024/03/29 12:08:15;;;;;;;2.20;2.00;;;14.70;99.90;;;;;;4979299;23;20478;-64
2024/03/29 12:10:40;;;;;;;2.00;1.90;;;14.50;99.90;;;;;;4991604;28;20426;-65
2024/03/29 12:13:07;;;;;;;2.50;2.30;;;14.70;99.90;;;;;;4994348;28;20430;-65
2024/03/29 12:15:33;;;;;;;5.47;3.33;;;15.00;99.90;;;;;;4994275;28;20198;-65
2024/03/29 12:18:04;;;;;;;2.27;1.97;;;15.00;99.90;;;;;;4996788;28;20511;-65
2024/03/29 12:20:30;;;;;;;3.53;2.20;;;15.50;99.90;;;;;;5013736;28;20418;-65
2024/03/29 12:22:58;;;;;;;1.93;1.83;;;15.80;99.90;;;;;;5013588;28;20453;-65
2024/03/29 12:25:25;;;;;;;2.90;1.67;;;16.10;99.90;;;;;;5007860;28;20656;-65
2024/03/29 12:27:52;;;;;;;2.03;1.80;;;16.40;99.90;;;;;;4993272;28;20445;-65
2024/03/29 12:30:19;;;;;;;2.70;2.50;;;16.60;99.90;;;;;;4994077;28;20947;-65
2024/03/29 12:32:44;;;;;;;3.57;1.73;;;16.60;99.90;;;;;;4993830;28;20421;-65
2024/03/29 12:35:20;;;;;;;2.30;2.10;;;16.90;99.90;;;;;;4995833;28;20427;-65
2024/03/29 12:37:50;;;;;;;2.17;1.97;;;17.20;99.90;;;;;;5012611;28;20163;-65
2024/03/29 12:40:21;;;;;;;2.53;2.33;;;18.40;99.90;;;;;;5010541;28;20424;-65
2024/03/29 12:42:47;;;;;;;3.77;2.60;;;19.10;99.90;;;;;;4993652;28;20427;-65
2024/03/29 12:45:13;;;;;;;4.17;3.67;;;19.40;99.90;;;;;;4993642;28;20426;-65
2024/03/29 12:47:39;;;;;;;2.47;2.27;;;20.10;99.90;;;;;;4993075;28;20427;-65
2024/03/29 12:50:05;;;;;;;2.60;2.40;;;21.90;98.90;;;;;;4993636;28;20254;-65
2024/03/29 12:52:40;;;;;;;3.00;2.70;;;22.60;91.70;;;;;;4993644;28;20176;-65
2024/03/29 12:55:08;;;;;;;2.30;2.10;;;22.30;91.70;;;;;;4993425;28;20425;-65
2024/03/29 12:57:44;;;;;;;2.30;2.10;;;21.70;91.20;;;;;;5010301;28;20430;-65
2024/03/29 13:00:11;;;;;;;3.20;2.60;;;20.40;95.10;;;;;;5013147;28;20416;-65